sensor_id;sensor_type;location;lat;lon;timestamp;temperature;humidity
32502;DHT22;18952;52.516;13.460;2023-04-24T00:01:11;12.50;99.90
32502;DHT22;18952;52.516;13.460;2023-04-24T00:03:41;12.50;99.90
32502;DHT22;18952;52.516;13.460;2023-04-24T00:06:08;12.50;99.90
32502;DHT22;18952;52.516;13.460;2023-04-24T00:08:35;12.50;99.90
32502;DHT22;18952;52.516;13.460;2023-04-24T00:11:02;12.50;99.90
32502;DHT22;18952;52.516;13.460;2023-04-24T00:13:29;12.40;99.90
32502;DHT22;18952;52.516;13.460;2023-04-24T00:15:56;12.40;99.90
32502;DHT22;18952;52.516;13.460;2023-04-24T00:18:22;12.40;99.90
32502;DHT22;18952;52.516;13.460;2023-04-24T00:20:49;12.40;99.90
32502;DHT22;18952;52.516;13.460;2023-04-24T00:23:16;12.40;99.90
32502;DHT22;18952;52.516;13.460;2023-04-24T00:25:44;12.30;99.90
32502;DHT22;18952;52.516;13.460;2023-04-24T00:28:12;12.30;99.90
32502;DHT22;18952;52.516;13.460;2023-04-24T00:30:40;12.30;99.90
32502;DHT22;18952;52.516;13.460;2023-04-24T00:33:07;12.30;99.90
32502;DHT22;18952;52.516;13.460;2023-04-24T00:35:37;12.30;99.90
32502;DHT22;18952;52.516;13.460;2023-04-24T00:38:07;12.20;99.90
32502;DHT22;18952;52.516;13.460;2023-04-24T00:40:36;12.20;99.90
32502;DHT22;18952;52.516;13.460;2023-04-24T00:43:03;12.20;99.90
32502;DHT22;18952;52.516;13.460;2023-04-24T00:45:30;12.10;99.90
32502;DHT22;18952;52.516;13.460;2023-04-24T00:47:57;12.10;99.90
32502;DHT22;18952;52.516;13.460;2023-04-24T00:50:24;12.10;99.90
32502;DHT22;18952;52.516;13.460;2023-04-24T00:52:51;12.10;99.90
32502;DHT22;18952;52.516;13.460;2023-04-24T00:55:17;12.10;99.90
32502;DHT22;18952;52.516;13.460;2023-04-24T00:57:46;12.10;99.90
32502;DHT22;18952;52.516;13.460;2023-04-24T01:00:15;12.00;99.90
32502;DHT22;18952;52.516;13.460;2023-04-24T01:02:44;12.00;99.90
32502;DHT22;18952;52.516;13.460;2023-04-24T01:05:12;12.00;99.90
32502;DHT22;18952;52.516;13.460;2023-04-24T01:07:41;12.00;99.90
32502;DHT22;18952;52.516;13.460;2023-04-24T01:10:09;12.00;99.90
32502;DHT22;18952;52.516;13.460;2023-04-24T01:12:37;12.00;99.90
32502;DHT22;18952;52.516;13.460;2023-04-24T01:15:04;11.90;99.90
32502;DHT22;18952;52.516;13.460;2023-04-24T01:17:32;11.90;99.90
32502;DHT22;18952;52.516;13.460;2023-04-24T01:20:00;11.90;99.90
32502;DHT22;18952;52.516;13.460;2023-04-24T01:22:27;11.80;99.90
32502;DHT22;18952;52.516;13.460;2023-04-24T01:24:56;11.80;99.90
32502;DHT22;18952;52.516;13.460;2023-04-24T01:27:26;11.80;99.90
32502;DHT22;18952;52.516;13.460;2023-04-24T01:29:55;11.80;99.90
32502;DHT22;18952;52.516;13.460;2023-04-24T01:32:24;11.90;99.90
32502;DHT22;18952;52.516;13.460;2023-04-24T01:34:51;11.90;99.90
32502;DHT22;18952;52.516;13.460;2023-04-24T01:37:21;11.90;99.90
32502;DHT22;18952;52.516;13.460;2023-04-24T01:39:48;11.80;99.90
32502;DHT22;18952;52.516;13.460;2023-04-24T01:42:15;11.80;99.90
32502;DHT22;18952;52.516;13.460;2023-04-24T01:44:42;11.80;99.90
32502;DHT22;18952;52.516;13.460;2023-04-24T01:47:10;11.80;99.90
32502;DHT22;18952;52.516;13.460;2023-04-24T01:49:38;11.80;99.90
32502;DHT22;18952;52.516;13.460;2023-04-24T01:52:05;11.80;99.90
32502;DHT22;18952;52.516;13.460;2023-04-24T01:54:31;11.70;99.90
32502;DHT22;18952;52.516;13.460;2023-04-24T01:56:59;11.80;99.90
32502;DHT22;18952;52.516;13.460;2023-04-24T01:59:28;11.80;99.90
32502;DHT22;18952;52.516;13.460;2023-04-24T02:01:54;11.80;99.90
32502;DHT22;18952;52.516;13.460;2023-04-24T02:04:21;11.80;99.90
32502;DHT22;18952;52.516;13.460;2023-04-24T02:06:48;11.80;99.90
32502;DHT22;18952;52.516;13.460;2023-04-24T02:09:16;11.80;99.90
32502;DHT22;18952;52.516;13.460;2023-04-24T02:11:43;11.90;99.90
32502;DHT22;18952;52.516;13.460;2023-04-24T02:14:10;11.90;99.90
32502;DHT22;18952;52.516;13.460;2023-04-24T02:16:38;11.80;99.90
32502;DHT22;18952;52.516;13.460;2023-04-24T02:19:08;11.80;99.90
32502;DHT22;18952;52.516;13.460;2023-04-24T02:21:45;11.80;99.90
32502;DHT22;18952;52.516;13.460;2023-04-24T02:24:12;11.80;99.90
32502;DHT22;18952;52.516;13.460;2023-04-24T02:26:40;11.80;99.90
32502;DHT22;18952;52.516;13.460;2023-04-24T02:29:09;11.80;99.90
32502;DHT22;18952;52.516;13.460;2023-04-24T02:31:36;11.90;99.90
32502;DHT22;18952;52.516;13.460;2023-04-24T02:34:06;11.90;99.90
32502;DHT22;18952;52.516;13.460;2023-04-24T02:36:33;11.90;99.90
32502;DHT22;18952;52.516;13.460;2023-04-24T02:38:59;11.90;99.90
32502;DHT22;18952;52.516;13.460;2023-04-24T02:41:26;11.90;99.90
32502;DHT22;18952;52.516;13.460;2023-04-24T02:43:53;11.80;99.90
32502;DHT22;18952;52.516;13.460;2023-04-24T02:46:20;11.80;99.90
32502;DHT22;18952;52.516;13.460;2023-04-24T02:48:47;11.80;99.90
32502;DHT22;18952;52.516;13.460;2023-04-24T02:51:14;11.80;99.90
32502;DHT22;18952;52.516;13.460;2023-04-24T02:53:40;11.90;99.90
32502;DHT22;18952;52.516;13.460;2023-04-24T02:56:08;11.90;99.90
32502;DHT22;18952;52.516;13.460;2023-04-24T02:58:36;11.90;99.90
32502;DHT22;18952;52.516;13.460;2023-04-24T03:01:03;11.90;99.90
32502;DHT22;18952;52.516;13.460;2023-04-24T03:03:31;11.90;99.90
32502;DHT22;18952;52.516;13.460;2023-04-24T03:06:00;11.90;99.90
32502;DHT22;18952;52.516;13.460;2023-04-24T03:08:30;11.90;99.90
32502;DHT22;18952;52.516;13.460;2023-04-24T03:10:59;11.90;99.90
32502;DHT22;18952;52.516;13.460;2023-04-24T03:13:26;11.80;99.90
32502;DHT22;18952;52.516;13.460;2023-04-24T03:15:52;11.90;99.90
32502;DHT22;18952;52.516;13.460;2023-04-24T03:18:19;11.90;99.90
32502;DHT22;18952;52.516;13.460;2023-04-24T03:20:46;11.90;99.90
32502;DHT22;18952;52.516;13.460;2023-04-24T03:23:13;12.00;99.90
32502;DHT22;18952;52.516;13.460;2023-04-24T03:25:40;12.00;99.90
32502;DHT22;18952;52.516;13.460;2023-04-24T03:28:06;11.90;99.90
32502;DHT22;18952;52.516;13.460;2023-04-24T03:30:33;11.90;99.90
32502;DHT22;18952;52.516;13.460;2023-04-24T03:33:00;11.90;99.90
32502;DHT22;18952;52.516;13.460;2023-04-24T03:35:27;12.00;99.90
32502;DHT22;18952;52.516;13.460;2023-04-24T03:37:55;12.00;99.90
32502;DHT22;18952;52.516;13.460;2023-04-24T03:40:23;12.00;99.90
32502;DHT22;18952;52.516;13.460;2023-04-24T03:42:51;12.00;99.90
32502;DHT22;18952;52.516;13.460;2023-04-24T03:45:18;12.00;99.90
32502;DHT22;18952;52.516;13.460;2023-04-24T03:47:44;12.00;99.90
32502;DHT22;18952;52.516;13.460;2023-04-24T03:50:11;12.00;99.90
32502;DHT22;18952;52.516;13.460;2023-04-24T03:52:38;12.10;99.90
32502;DHT22;18952;52.516;13.460;2023-04-24T03:55:06;12.00;99.90
32502;DHT22;18952;52.516;13.460;2023-04-24T03:57:33;12.00;99.90
32502;DHT22;18952;52.516;13.460;2023-04-24T03:59:59;12.00;99.90
32502;DHT22;18952;52.516;13.460;2023-04-24T04:02:26;12.00;99.90
32502;DHT22;18952;52.516;13.460;2023-04-24T04:04:53;12.00;99.90
32502;DHT22;18952;52.516;13.460;2023-04-24T04:07:20;12.10;99.90
32502;DHT22;18952;52.516;13.460;2023-04-24T04:09:48;12.10;99.90
32502;DHT22;18952;52.516;13.460;2023-04-24T04:12:15;12.10;99.90
32502;DHT22;18952;52.516;13.460;2023-04-24T04:14:41;12.10;99.90
32502;DHT22;18952;52.516;13.460;2023-04-24T04:17:08;12.20;99.90
32502;DHT22;18952;52.516;13.460;2023-04-24T04:19:35;12.20;99.90
32502;DHT22;18952;52.516;13.460;2023-04-24T04:22:02;12.20;99.90
32502;DHT22;18952;52.516;13.460;2023-04-24T04:24:28;12.20;99.90
32502;DHT22;18952;52.516;13.460;2023-04-24T04:26:55;12.20;99.90
32502;DHT22;18952;52.516;13.460;2023-04-24T04:29:22;12.20;99.90
32502;DHT22;18952;52.516;13.460;2023-04-24T04:31:49;12.20;99.90
32502;DHT22;18952;52.516;13.460;2023-04-24T04:34:18;12.30;99.90
32502;DHT22;18952;52.516;13.460;2023-04-24T04:36:45;12.30;99.90
32502;DHT22;18952;52.516;13.460;2023-04-24T04:39:13;12.20;99.90
32502;DHT22;18952;52.516;13.460;2023-04-24T04:41:39;12.20;99.90
32502;DHT22;18952;52.516;13.460;2023-04-24T04:44:07;12.20;99.90
32502;DHT22;18952;52.516;13.460;2023-04-24T04:46:35;12.30;99.90
32502;DHT22;18952;52.516;13.460;2023-04-24T04:49:02;12.30;99.90
32502;DHT22;18952;52.516;13.460;2023-04-24T04:51:31;12.30;99.90
32502;DHT22;18952;52.516;13.460;2023-04-24T04:54:02;12.30;99.90
32502;DHT22;18952;52.516;13.460;2023-04-24T04:56:37;12.30;99.90
32502;DHT22;18952;52.516;13.460;2023-04-24T04:59:05;12.30;99.90
32502;DHT22;18952;52.516;13.460;2023-04-24T05:01:34;12.40;99.90
32502;DHT22;18952;52.516;13.460;2023-04-24T05:04:00;12.40;99.90
32502;DHT22;18952;52.516;13.460;2023-04-24T05:06:27;12.40;99.90
32502;DHT22;18952;52.516;13.460;2023-04-24T05:08:54;12.40;99.90
32502;DHT22;18952;52.516;13.460;2023-04-24T05:11:21;12.40;99.90
32502;DHT22;18952;52.516;13.460;2023-04-24T05:13:47;12.40;99.90
32502;DHT22;18952;52.516;13.460;2023-04-24T05:16:14;12.40;99.90
32502;DHT22;18952;52.516;13.460;2023-04-24T05:18:41;12.40;99.90
32502;DHT22;18952;52.516;13.460;2023-04-24T05:21:08;12.40;99.90
32502;DHT22;18952;52.516;13.460;2023-04-24T05:23:35;12.40;99.90
32502;DHT22;18952;52.516;13.460;2023-04-24T05:26:03;12.40;99.90
32502;DHT22;18952;52.516;13.460;2023-04-24T05:28:35;12.40;99.90
32502;DHT22;18952;52.516;13.460;2023-04-24T05:31:05;12.30;99.90
32502;DHT22;18952;52.516;13.460;2023-04-24T05:33:44;12.30;99.90
32502;DHT22;18952;52.516;13.460;2023-04-24T05:36:13;12.20;99.90
32502;DHT22;18952;52.516;13.460;2023-04-24T05:38:40;12.20;99.90
32502;DHT22;18952;52.516;13.460;2023-04-24T05:41:07;12.20;99.90
32502;DHT22;18952;52.516;13.460;2023-04-24T05:43:33;12.20;99.90
32502;DHT22;18952;52.516;13.460;2023-04-24T05:46:00;12.10;99.90
32502;DHT22;18952;52.516;13.460;2023-04-24T05:48:27;12.10;99.90
32502;DHT22;18952;52.516;13.460;2023-04-24T05:50:54;12.10;99.90
32502;DHT22;18952;52.516;13.460;2023-04-24T05:53:20;12.20;99.90
32502;DHT22;18952;52.516;13.460;2023-04-24T05:55:49;12.10;99.90
32502;DHT22;18952;52.516;13.460;2023-04-24T05:58:17;12.20;99.90
32502;DHT22;18952;52.516;13.460;2023-04-24T06:00:45;12.20;99.90
32502;DHT22;18952;52.516;13.460;2023-04-24T06:03:14;12.20;99.90
32502;DHT22;18952;52.516;13.460;2023-04-24T06:05:41;12.20;99.90
32502;DHT22;18952;52.516;13.460;2023-04-24T06:08:08;12.20;99.90
32502;DHT22;18952;52.516;13.460;2023-04-24T06:10:35;12.20;99.90
32502;DHT22;18952;52.516;13.460;2023-04-24T06:13:02;12.20;99.90
32502;DHT22;18952;52.516;13.460;2023-04-24T06:15:30;12.20;99.90
32502;DHT22;18952;52.516;13.460;2023-04-24T06:17:57;12.20;99.90
32502;DHT22;18952;52.516;13.460;2023-04-24T06:20:24;12.30;99.90
32502;DHT22;18952;52.516;13.460;2023-04-24T06:22:51;12.20;99.90
32502;DHT22;18952;52.516;13.460;2023-04-24T06:25:18;12.30;99.90
32502;DHT22;18952;52.516;13.460;2023-04-24T06:27:45;12.30;99.90
32502;DHT22;18952;52.516;13.460;2023-04-24T06:30:12;12.40;99.90
32502;DHT22;18952;52.516;13.460;2023-04-24T06:32:40;12.40;99.90
32502;DHT22;18952;52.516;13.460;2023-04-24T06:35:07;12.40;99.90
32502;DHT22;18952;52.516;13.460;2023-04-24T06:37:35;12.40;99.90
32502;DHT22;18952;52.516;13.460;2023-04-24T06:40:02;12.40;99.90
32502;DHT22;18952;52.516;13.460;2023-04-24T06:42:30;12.50;99.90
32502;DHT22;18952;52.516;13.460;2023-04-24T06:44:57;12.50;99.90
32502;DHT22;18952;52.516;13.460;2023-04-24T06:47:25;12.60;99.90
32502;DHT22;18952;52.516;13.460;2023-04-24T06:49:54;12.70;99.90
32502;DHT22;18952;52.516;13.460;2023-04-24T06:52:24;12.80;99.90
32502;DHT22;18952;52.516;13.460;2023-04-24T06:54:52;12.80;99.90
32502;DHT22;18952;52.516;13.460;2023-04-24T06:57:19;12.90;99.90
32502;DHT22;18952;52.516;13.460;2023-04-24T06:59:46;13.00;99.90
32502;DHT22;18952;52.516;13.460;2023-04-24T07:02:13;13.10;99.90
32502;DHT22;18952;52.516;13.460;2023-04-24T07:04:40;13.20;99.90
32502;DHT22;18952;52.516;13.460;2023-04-24T07:07:07;13.20;99.90
32502;DHT22;18952;52.516;13.460;2023-04-24T07:09:33;13.40;99.90
32502;DHT22;18952;52.516;13.460;2023-04-24T07:12:00;13.30;99.90
32502;DHT22;18952;52.516;13.460;2023-04-24T07:14:27;13.30;99.90
32502;DHT22;18952;52.516;13.460;2023-04-24T07:16:54;13.40;99.90
32502;DHT22;18952;52.516;13.460;2023-04-24T07:19:20;13.40;99.90
32502;DHT22;18952;52.516;13.460;2023-04-24T07:21:47;13.50;99.90
32502;DHT22;18952;52.516;13.460;2023-04-24T07:24:15;13.50;99.90
32502;DHT22;18952;52.516;13.460;2023-04-24T07:26:43;13.50;99.90
32502;DHT22;18952;52.516;13.460;2023-04-24T07:29:11;13.50;99.90
32502;DHT22;18952;52.516;13.460;2023-04-24T07:31:38;13.50;99.90
32502;DHT22;18952;52.516;13.460;2023-04-24T07:34:05;13.60;99.90
32502;DHT22;18952;52.516;13.460;2023-04-24T07:36:32;13.70;99.90
32502;DHT22;18952;52.516;13.460;2023-04-24T07:38:59;13.80;99.90
32502;DHT22;18952;52.516;13.460;2023-04-24T07:41:25;13.80;99.90
32502;DHT22;18952;52.516;13.460;2023-04-24T07:43:52;13.90;99.90
32502;DHT22;18952;52.516;13.460;2023-04-24T07:46:20;13.90;99.90
32502;DHT22;18952;52.516;13.460;2023-04-24T07:48:48;13.80;99.90
32502;DHT22;18952;52.516;13.460;2023-04-24T07:51:31;13.80;99.90
32502;DHT22;18952;52.516;13.460;2023-04-24T07:53:58;13.80;99.90
32502;DHT22;18952;52.516;13.460;2023-04-24T07:56:25;13.80;99.90
32502;DHT22;18952;52.516;13.460;2023-04-24T07:58:53;13.90;99.90
32502;DHT22;18952;52.516;13.460;2023-04-24T08:01:20;13.90;99.90
32502;DHT22;18952;52.516;13.460;2023-04-24T08:03:47;14.00;99.90
32502;DHT22;18952;52.516;13.460;2023-04-24T08:06:14;14.10;99.90
32502;DHT22;18952;52.516;13.460;2023-04-24T08:08:41;14.20;99.90
32502;DHT22;18952;52.516;13.460;2023-04-24T08:11:08;14.20;99.90
32502;DHT22;18952;52.516;13.460;2023-04-24T08:13:34;14.20;99.90
32502;DHT22;18952;52.516;13.460;2023-04-24T08:16:02;14.30;99.90
32502;DHT22;18952;52.516;13.460;2023-04-24T08:18:28;14.40;99.90
32502;DHT22;18952;52.516;13.460;2023-04-24T08:20:55;14.50;99.90
32502;DHT22;18952;52.516;13.460;2023-04-24T08:23:22;14.60;99.90
32502;DHT22;18952;52.516;13.460;2023-04-24T08:25:50;14.70;99.90
32502;DHT22;18952;52.516;13.460;2023-04-24T08:28:20;14.70;99.90
32502;DHT22;18952;52.516;13.460;2023-04-24T08:30:47;14.80;99.90
32502;DHT22;18952;52.516;13.460;2023-04-24T08:33:15;14.80;99.90
32502;DHT22;18952;52.516;13.460;2023-04-24T08:35:49;14.80;99.90
32502;DHT22;18952;52.516;13.460;2023-04-24T08:38:16;14.90;99.90
32502;DHT22;18952;52.516;13.460;2023-04-24T08:40:43;15.00;99.90
32502;DHT22;18952;52.516;13.460;2023-04-24T08:43:10;15.20;99.90
32502;DHT22;18952;52.516;13.460;2023-04-24T08:45:37;15.30;99.90
32502;DHT22;18952;52.516;13.460;2023-04-24T08:48:04;15.40;99.90
32502;DHT22;18952;52.516;13.460;2023-04-24T08:50:42;15.50;99.90
32502;DHT22;18952;52.516;13.460;2023-04-24T08:53:10;15.50;99.90
32502;DHT22;18952;52.516;13.460;2023-04-24T08:55:37;15.60;99.90
32502;DHT22;18952;52.516;13.460;2023-04-24T08:58:05;15.70;99.90
32502;DHT22;18952;52.516;13.460;2023-04-24T09:00:32;15.80;99.90
32502;DHT22;18952;52.516;13.460;2023-04-24T09:03:00;15.80;99.90
32502;DHT22;18952;52.516;13.460;2023-04-24T09:05:28;15.90;99.90
32502;DHT22;18952;52.516;13.460;2023-04-24T09:07:56;15.90;99.90
32502;DHT22;18952;52.516;13.460;2023-04-24T09:10:24;15.90;99.90
32502;DHT22;18952;52.516;13.460;2023-04-24T09:12:51;15.90;99.90
32502;DHT22;18952;52.516;13.460;2023-04-24T09:15:19;15.90;99.90
32502;DHT22;18952;52.516;13.460;2023-04-24T09:17:47;15.90;99.90
32502;DHT22;18952;52.516;13.460;2023-04-24T09:20:14;15.90;99.90
32502;DHT22;18952;52.516;13.460;2023-04-24T09:22:42;16.10;99.90
32502;DHT22;18952;52.516;13.460;2023-04-24T09:25:10;16.10;99.90
32502;DHT22;18952;52.516;13.460;2023-04-24T09:27:41;16.20;99.90
32502;DHT22;18952;52.516;13.460;2023-04-24T09:30:09;16.30;99.90
32502;DHT22;18952;52.516;13.460;2023-04-24T09:32:36;16.40;99.90
32502;DHT22;18952;52.516;13.460;2023-04-24T09:35:08;16.50;99.90
32502;DHT22;18952;52.516;13.460;2023-04-24T09:37:36;16.60;99.90
32502;DHT22;18952;52.516;13.460;2023-04-24T09:40:17;16.60;99.90
32502;DHT22;18952;52.516;13.460;2023-04-24T09:42:55;16.60;99.90
32502;DHT22;18952;52.516;13.460;2023-04-24T09:45:28;16.40;99.90
32502;DHT22;18952;52.516;13.460;2023-04-24T09:47:55;16.50;99.90
32502;DHT22;18952;52.516;13.460;2023-04-24T09:50:22;16.50;99.90
32502;DHT22;18952;52.516;13.460;2023-04-24T09:53:01;16.50;99.90
32502;DHT22;18952;52.516;13.460;2023-04-24T09:55:28;16.60;99.90
32502;DHT22;18952;52.516;13.460;2023-04-24T09:57:57;16.60;99.90
32502;DHT22;18952;52.516;13.460;2023-04-24T10:00:28;16.50;99.90
32502;DHT22;18952;52.516;13.460;2023-04-24T10:02:59;16.50;99.90
32502;DHT22;18952;52.516;13.460;2023-04-24T10:08:03;16.50;99.90
32502;DHT22;18952;52.516;13.460;2023-04-24T10:10:32;16.60;99.90
32502;DHT22;18952;52.516;13.460;2023-04-24T10:12:59;16.60;99.90
32502;DHT22;18952;52.516;13.460;2023-04-24T10:15:28;16.50;99.90
32502;DHT22;18952;52.516;13.460;2023-04-24T10:17:54;16.50;99.90
32502;DHT22;18952;52.516;13.460;2023-04-24T10:20:27;16.60;99.90
32502;DHT22;18952;52.516;13.460;2023-04-24T10:22:56;16.70;99.90
32502;DHT22;18952;52.516;13.460;2023-04-24T10:25:27;16.70;99.90
32502;DHT22;18952;52.516;13.460;2023-04-24T10:27:57;16.60;99.90
32502;DHT22;18952;52.516;13.460;2023-04-24T10:30:24;16.70;99.90
32502;DHT22;18952;52.516;13.460;2023-04-24T10:32:51;16.70;99.90
32502;DHT22;18952;52.516;13.460;2023-04-24T10:35:19;16.90;99.90
32502;DHT22;18952;52.516;13.460;2023-04-24T10:37:48;17.00;99.90
32502;DHT22;18952;52.516;13.460;2023-04-24T10:40:35;17.00;99.90
32502;DHT22;18952;52.516;13.460;2023-04-24T10:43:03;17.00;99.90
32502;DHT22;18952;52.516;13.460;2023-04-24T10:45:30;17.00;99.90
32502;DHT22;18952;52.516;13.460;2023-04-24T10:48:05;16.80;99.90
32502;DHT22;18952;52.516;13.460;2023-04-24T10:50:51;16.60;99.90
32502;DHT22;18952;52.516;13.460;2023-04-24T10:53:22;16.50;99.90
32502;DHT22;18952;52.516;13.460;2023-04-24T10:55:58;16.30;99.90
32502;DHT22;18952;52.516;13.460;2023-04-24T10:58:36;16.20;99.90
32502;DHT22;18952;52.516;13.460;2023-04-24T11:01:03;16.20;99.90
32502;DHT22;18952;52.516;13.460;2023-04-24T11:03:32;16.30;99.90
32502;DHT22;18952;52.516;13.460;2023-04-24T11:06:03;16.30;99.90
32502;DHT22;18952;52.516;13.460;2023-04-24T11:08:39;16.40;99.90
32502;DHT22;18952;52.516;13.460;2023-04-24T11:19:06;16.70;99.90
32502;DHT22;18952;52.516;13.460;2023-04-24T11:34:52;16.60;99.90
32502;DHT22;18952;52.516;13.460;2023-04-24T11:37:19;16.50;99.90
32502;DHT22;18952;52.516;13.460;2023-04-24T11:39:46;16.40;99.90
32502;DHT22;18952;52.516;13.460;2023-04-24T11:42:16;16.30;99.90
32502;DHT22;18952;52.516;13.460;2023-04-24T11:44:43;16.10;99.90
32502;DHT22;18952;52.516;13.460;2023-04-24T11:47:10;15.70;99.90
32502;DHT22;18952;52.516;13.460;2023-04-24T11:49:38;15.30;99.90
32502;DHT22;18952;52.516;13.460;2023-04-24T11:52:06;15.20;99.90
32502;DHT22;18952;52.516;13.460;2023-04-24T11:54:34;15.40;99.90
32502;DHT22;18952;52.516;13.460;2023-04-24T11:57:05;15.60;99.90
32502;DHT22;18952;52.516;13.460;2023-04-24T11:59:36;15.80;99.90
32502;DHT22;18952;52.516;13.460;2023-04-24T12:02:04;16.20;99.90
32502;DHT22;18952;52.516;13.460;2023-04-24T12:04:41;16.40;99.90
32502;DHT22;18952;52.516;13.460;2023-04-24T12:07:09;16.70;99.90
32502;DHT22;18952;52.516;13.460;2023-04-24T12:09:58;17.00;99.90
32502;DHT22;18952;52.516;13.460;2023-04-24T12:12:28;17.30;99.90
32502;DHT22;18952;52.516;13.460;2023-04-24T12:14:56;17.40;99.90
32502;DHT22;18952;52.516;13.460;2023-04-24T12:17:29;17.50;99.90
32502;DHT22;18952;52.516;13.460;2023-04-24T12:20:01;17.70;99.90
32502;DHT22;18952;52.516;13.460;2023-04-24T12:22:51;17.70;99.90
32502;DHT22;18952;52.516;13.460;2023-04-24T12:25:18;17.80;99.90
32502;DHT22;18952;52.516;13.460;2023-04-24T12:30:34;18.20;99.90
32502;DHT22;18952;52.516;13.460;2023-04-24T12:33:02;18.40;99.90
32502;DHT22;18952;52.516;13.460;2023-04-24T12:35:31;18.60;99.90
32502;DHT22;18952;52.516;13.460;2023-04-24T12:38:13;18.60;99.90
32502;DHT22;18952;52.516;13.460;2023-04-24T12:40:42;18.50;99.90
32502;DHT22;18952;52.516;13.460;2023-04-24T12:43:16;18.60;99.90
32502;DHT22;18952;52.516;13.460;2023-04-24T12:45:45;18.40;99.90
32502;DHT22;18952;52.516;13.460;2023-04-24T12:48:13;18.20;98.90
32502;DHT22;18952;52.516;13.460;2023-04-24T12:50:40;17.90;97.90
32502;DHT22;18952;52.516;13.460;2023-04-24T12:53:11;17.80;94.70
32502;DHT22;18952;52.516;13.460;2023-04-24T12:55:40;17.70;93.40
32502;DHT22;18952;52.516;13.460;2023-04-24T12:58:07;17.70;91.50
32502;DHT22;18952;52.516;13.460;2023-04-24T13:00:34;17.60;90.70
32502;DHT22;18952;52.516;13.460;2023-04-24T13:03:01;17.60;90.00
32502;DHT22;18952;52.516;13.460;2023-04-24T13:05:28;17.80;86.60
32502;DHT22;18952;52.516;13.460;2023-04-24T13:07:55;17.90;85.60
32502;DHT22;18952;52.516;13.460;2023-04-24T13:10:21;18.20;84.90
32502;DHT22;18952;52.516;13.460;2023-04-24T13:12:48;18.60;79.40
32502;DHT22;18952;52.516;13.460;2023-04-24T13:15:15;18.70;78.30
32502;DHT22;18952;52.516;13.460;2023-04-24T13:17:42;18.60;76.10
32502;DHT22;18952;52.516;13.460;2023-04-24T13:20:10;18.30;76.40
32502;DHT22;18952;52.516;13.460;2023-04-24T13:22:37;18.40;75.10
32502;DHT22;18952;52.516;13.460;2023-04-24T13:25:04;18.60;69.70
32502;DHT22;18952;52.516;13.460;2023-04-24T13:27:32;18.80;68.30
32502;DHT22;18952;52.516;13.460;2023-04-24T13:30:00;18.90;67.20
32502;DHT22;18952;52.516;13.460;2023-04-24T13:32:28;19.00;66.90
32502;DHT22;18952;52.516;13.460;2023-04-24T13:34:54;19.20;67.30
32502;DHT22;18952;52.516;13.460;2023-04-24T13:37:21;19.40;66.00
32502;DHT22;18952;52.516;13.460;2023-04-24T13:39:48;19.60;65.10
32502;DHT22;18952;52.516;13.460;2023-04-24T13:42:15;19.70;63.80
32502;DHT22;18952;52.516;13.460;2023-04-24T13:44:41;19.60;62.10
32502;DHT22;18952;52.516;13.460;2023-04-24T13:47:08;19.40;61.90
32502;DHT22;18952;52.516;13.460;2023-04-24T13:49:35;19.30;62.70
32502;DHT22;18952;52.516;13.460;2023-04-24T13:52:02;19.60;59.40
32502;DHT22;18952;52.516;13.460;2023-04-24T13:54:28;19.80;60.40
32502;DHT22;18952;52.516;13.460;2023-04-24T13:56:57;20.10;60.00
32502;DHT22;18952;52.516;13.460;2023-04-24T13:59:24;20.50;59.30
32502;DHT22;18952;52.516;13.460;2023-04-24T14:01:51;20.50;59.40
32502;DHT22;18952;52.516;13.460;2023-04-24T14:04:18;20.40;58.90
32502;DHT22;18952;52.516;13.460;2023-04-24T14:06:46;20.30;59.00
32502;DHT22;18952;52.516;13.460;2023-04-24T14:09:14;20.30;58.10
32502;DHT22;18952;52.516;13.460;2023-04-24T14:11:41;20.50;58.70
32502;DHT22;18952;52.516;13.460;2023-04-24T14:14:10;20.50;58.10
32502;DHT22;18952;52.516;13.460;2023-04-24T14:16:39;20.20;58.80
32502;DHT22;18952;52.516;13.460;2023-04-24T14:19:08;20.20;57.70
32502;DHT22;18952;52.516;13.460;2023-04-24T14:21:35;20.00;58.10
32502;DHT22;18952;52.516;13.460;2023-04-24T14:24:01;19.80;59.00
32502;DHT22;18952;52.516;13.460;2023-04-24T14:26:28;19.70;59.10
32502;DHT22;18952;52.516;13.460;2023-04-24T14:28:55;19.50;60.00
32502;DHT22;18952;52.516;13.460;2023-04-24T14:31:39;19.30;60.20
32502;DHT22;18952;52.516;13.460;2023-04-24T14:34:06;19.40;58.90
32502;DHT22;18952;52.516;13.460;2023-04-24T14:36:32;19.20;59.40
32502;DHT22;18952;52.516;13.460;2023-04-24T14:38:59;19.10;59.80
32502;DHT22;18952;52.516;13.460;2023-04-24T14:41:26;19.00;60.30
32502;DHT22;18952;52.516;13.460;2023-04-24T14:43:53;19.30;59.30
32502;DHT22;18952;52.516;13.460;2023-04-24T14:46:20;19.60;58.10
32502;DHT22;18952;52.516;13.460;2023-04-24T14:48:46;19.30;56.90
32502;DHT22;18952;52.516;13.460;2023-04-24T14:51:14;18.90;58.10
32502;DHT22;18952;52.516;13.460;2023-04-24T14:53:42;18.60;59.10
32502;DHT22;18952;52.516;13.460;2023-04-24T14:56:11;18.50;59.70
32502;DHT22;18952;52.516;13.460;2023-04-24T14:58:41;18.60;60.30
32502;DHT22;18952;52.516;13.460;2023-04-24T15:01:10;19.10;60.40
32502;DHT22;18952;52.516;13.460;2023-04-24T15:03:37;19.30;59.50
32502;DHT22;18952;52.516;13.460;2023-04-24T15:06:05;19.20;58.70
32502;DHT22;18952;52.516;13.460;2023-04-24T15:08:31;18.80;58.80
32502;DHT22;18952;52.516;13.460;2023-04-24T15:10:58;18.50;60.00
32502;DHT22;18952;52.516;13.460;2023-04-24T15:13:25;18.40;60.50
32502;DHT22;18952;52.516;13.460;2023-04-24T15:15:51;18.10;60.80
32502;DHT22;18952;52.516;13.460;2023-04-24T15:18:18;17.80;61.60
32502;DHT22;18952;52.516;13.460;2023-04-24T15:20:45;17.70;62.20
32502;DHT22;18952;52.516;13.460;2023-04-24T15:23:11;17.60;63.10
32502;DHT22;18952;52.516;13.460;2023-04-24T15:25:38;17.60;63.30
32502;DHT22;18952;52.516;13.460;2023-04-24T15:28:05;17.50;63.30
32502;DHT22;18952;52.516;13.460;2023-04-24T15:30:35;17.40;63.50
32502;DHT22;18952;52.516;13.460;2023-04-24T15:33:03;17.30;63.70
32502;DHT22;18952;52.516;13.460;2023-04-24T15:35:30;17.50;63.50
32502;DHT22;18952;52.516;13.460;2023-04-24T15:38:01;17.40;61.60
32502;DHT22;18952;52.516;13.460;2023-04-24T15:40:29;17.40;61.70
32502;DHT22;18952;52.516;13.460;2023-04-24T15:42:57;17.20;62.10
32502;DHT22;18952;52.516;13.460;2023-04-24T15:45:24;17.10;62.90
32502;DHT22;18952;52.516;13.460;2023-04-24T15:47:51;16.80;63.30